Utopia, Ohio
Current Conditions -  °F | °C
As of 2:35 AM on Sunday 23 Nov 2014 (Local Time) from KFGX Reporting Station
Overcast Overcast  
Wind Chill: 44°   Ceiling: 9000
Heat Index: 48°   Visibility: 10mi
Dew Point: 33°   Wind: 8mph
Humidity: 55%   Direction: 170°S
Pressure: 30.08"   Gusts: NA
Location:  38.8698°N, 83.9081°W
Report Text: KFGX 230735Z AUTO 17007KT 10SM OVC090 09/00 A3008 RMK AO2 T00880003
Loading
Personal Weather Stations






























Interactive Weather Map New forecast layout! Learn more

10-Day Weather Forecast

Advertisements
Track Severe Weather on mobile